sensor_id;sensor_type;location;lat;lon;timestamp;pressure;altitude;pressure_sealevel;temperature;humidity
57192;BME280;43052;52.588;13.396;2023-01-31T18:46:16;100496.03;;;4.79;87.34
57192;BME280;43052;52.588;13.396;2023-01-31T18:48:42;100497.13;;;4.96;88.83
57192;BME280;43052;52.588;13.396;2023-01-31T18:51:11;100482.69;;;5.17;89.63
57192;BME280;43052;52.588;13.396;2023-01-31T18:53:38;100486.41;;;5.38;90.01
57192;BME280;43052;52.588;13.396;2023-01-31T18:56:06;100471.84;;;5.52;89.54
57192;BME280;43052;52.588;13.396;2023-01-31T18:58:35;100487.59;;;5.68;89.37
57192;BME280;43052;52.588;13.396;2023-01-31T19:01:08;100487.69;;;5.80;88.59
57192;BME280;43052;52.588;13.396;2023-01-31T19:03:34;100481.72;;;5.87;87.21
57192;BME280;43052;52.588;13.396;2023-01-31T19:06:08;100494.72;;;5.92;86.80
57192;BME280;43052;52.588;13.396;2023-01-31T19:08:33;100500.84;;;5.97;86.76
57192;BME280;43052;52.588;13.396;2023-01-31T19:11:04;100508.69;;;6.00;85.73
57192;BME280;43052;52.588;13.396;2023-01-31T19:13:29;100600.44;;;6.02;84.33
57192;BME280;43052;52.588;13.396;2023-01-31T19:15:59;100530.59;;;5.47;79.00
57192;BME280;43052;52.588;13.396;2023-01-31T19:18:24;100573.84;;;4.83;78.50
57192;BME280;43052;52.588;13.396;2023-01-31T19:20:49;100550.81;;;4.47;79.85
57192;BME280;43052;52.588;13.396;2023-01-31T19:23:15;100549.69;;;4.31;80.49
57192;BME280;43052;52.588;13.396;2023-01-31T19:25:40;100529.78;;;4.28;80.33
57192;BME280;43052;52.588;13.396;2023-01-31T19:28:05;100522.00;;;4.27;80.63
57192;BME280;43052;52.588;13.396;2023-01-31T19:30:30;100532.34;;;4.25;80.96
57192;BME280;43052;52.588;13.396;2023-01-31T19:32:56;100529.75;;;4.25;80.37
57192;BME280;43052;52.588;13.396;2023-01-31T19:35:21;100533.19;;;4.24;80.16
57192;BME280;43052;52.588;13.396;2023-01-31T19:37:46;100538.38;;;4.26;80.11
57192;BME280;43052;52.588;13.396;2023-01-31T19:40:12;100533.25;;;4.27;79.93
57192;BME280;43052;52.588;13.396;2023-01-31T19:42:38;100547.06;;;4.29;79.95
57192;BME280;43052;52.588;13.396;2023-01-31T19:45:05;100542.72;;;4.28;80.03
57192;BME280;43052;52.588;13.396;2023-01-31T19:47:35;100543.59;;;4.27;79.87
57192;BME280;43052;52.588;13.396;2023-01-31T19:50:00;100553.91;;;4.24;79.31
57192;BME280;43052;52.588;13.396;2023-01-31T19:52:29;100552.91;;;4.16;79.67
57192;BME280;43052;52.588;13.396;2023-01-31T19:54:54;100556.19;;;4.07;79.36
57192;BME280;43052;52.588;13.396;2023-01-31T19:57:19;100553.47;;;3.99;79.27
57192;BME280;43052;52.588;13.396;2023-01-31T19:59:44;100578.34;;;3.92;79.45
57192;BME280;43052;52.588;13.396;2023-01-31T20:02:10;100582.50;;;3.83;79.86
57192;BME280;43052;52.588;13.396;2023-01-31T20:04:36;100587.63;;;3.81;80.23
57192;BME280;43052;52.588;13.396;2023-01-31T20:07:01;100582.63;;;3.90;80.35
57192;BME280;43052;52.588;13.396;2023-01-31T20:09:26;100582.81;;;4.01;80.07
57192;BME280;43052;52.588;13.396;2023-01-31T20:11:51;100586.28;;;4.00;79.71
57192;BME280;43052;52.588;13.396;2023-01-31T20:14:18;100580.16;;;3.97;79.67
57192;BME280;43052;52.588;13.396;2023-01-31T20:16:43;100587.94;;;3.97;79.77
57192;BME280;43052;52.588;13.396;2023-01-31T20:19:08;100576.72;;;3.98;79.83
57192;BME280;43052;52.588;13.396;2023-01-31T20:21:33;100584.38;;;3.93;80.01
57192;BME280;43052;52.588;13.396;2023-01-31T20:23:59;100592.03;;;3.85;80.08
57192;BME280;43052;52.588;13.396;2023-01-31T20:26:24;100593.59;;;3.79;80.06
57192;BME280;43052;52.588;13.396;2023-01-31T20:28:51;100596.03;;;3.71;80.45
57192;BME280;43052;52.588;13.396;2023-01-31T20:31:17;100601.09;;;3.66;80.33
57192;BME280;43052;52.588;13.396;2023-01-31T20:33:42;100602.75;;;3.63;80.55
57192;BME280;43052;52.588;13.396;2023-01-31T20:36:07;100601.78;;;3.56;80.45
57192;BME280;43052;52.588;13.396;2023-01-31T20:38:33;100603.38;;;3.49;80.53
57192;BME280;43052;52.588;13.396;2023-01-31T20:40:58;100609.25;;;3.42;80.53
57192;BME280;43052;52.588;13.396;2023-01-31T20:43:25;100604.84;;;3.38;80.48
57192;BME280;43052;52.588;13.396;2023-01-31T20:45:51;100605.63;;;3.34;80.77
57192;BME280;43052;52.588;13.396;2023-01-31T20:48:16;100605.63;;;3.34;80.46
57192;BME280;43052;52.588;13.396;2023-01-31T20:50:41;100618.88;;;3.49;81.08
57192;BME280;43052;52.588;13.396;2023-01-31T20:53:16;100604.75;;;3.74;80.72
57192;BME280;43052;52.588;13.396;2023-01-31T20:55:42;100611.22;;;3.97;80.19
